Time;durP1;ratioP1;P1;durP2;ratioP2;P2;SDS_P1;SDS_P2;PMS_P1;PMS_P2;Temp;Humidity;BMP_temperature;BMP_pressure;BME280_temperature;BME280_humidity;BME280_pressure;Samples;Min_cycle;Max_cycle;Signal;HPM_P1;HPM_P2
2022/07/10 00:01:32;;;;;;;2.60;1.93;;;17.20;61.60;;;;;;5014157;28;20277;-88
2022/07/10 00:03:58;;;;;;;4.33;2.20;;;17.20;62.10;;;;;;5014029;28;20261;-89
2022/07/10 00:06:24;;;;;;;9.50;2.30;;;17.20;62.30;;;;;;5014176;28;20205;-88
2022/07/10 00:08:49;;;;;;;2.80;1.80;;;17.20;61.80;;;;;;5014397;28;20194;-89
2022/07/10 00:11:15;;;;;;;5.77;2.43;;;17.20;61.50;;;;;;5014557;28;20178;-89
2022/07/10 00:13:41;;;;;;;3.93;2.10;;;17.10;62.00;;;;;;5024041;28;20183;-89
2022/07/10 00:16:07;;;;;;;3.50;1.70;;;17.10;62.40;;;;;;5023354;28;20236;-88
2022/07/10 00:18:32;;;;;;;4.13;2.20;;;17.10;62.00;;;;;;5021991;28;20202;-87
2022/07/10 00:20:58;;;;;;;3.77;1.80;;;17.10;61.50;;;;;;5013912;28;20528;-88
2022/07/10 00:23:24;;;;;;;5.83;1.90;;;17.10;61.70;;;;;;4997795;28;20193;-88
2022/07/10 00:25:49;;;;;;;4.00;2.13;;;17.00;61.80;;;;;;5013713;28;20185;-88
2022/07/10 00:28:15;;;;;;;4.20;2.30;;;17.00;61.90;;;;;;5017220;28;20181;-88
2022/07/10 00:30:41;;;;;;;5.37;2.17;;;17.00;61.70;;;;;;5020789;28;20189;-88
2022/07/10 00:33:10;;;;;;;2.95;2.22;;;16.90;61.90;;;;;;5016274;28;20182;-89
2022/07/10 00:35:35;;;;;;;5.75;1.83;;;16.80;62.50;;;;;;5010964;28;20179;-88
2022/07/10 00:38:01;;;;;;;4.77;2.37;;;16.80;62.70;;;;;;4993187;28;20219;-89
2022/07/10 00:40:27;;;;;;;3.70;1.90;;;16.80;63.00;;;;;;4994781;28;20176;-89
2022/07/10 00:42:54;;;;;;;2.97;1.80;;;16.80;62.80;;;;;;5004359;28;20185;-88
2022/07/10 00:45:20;;;;;;;8.63;2.25;;;16.80;62.80;;;;;;5030507;28;20213;-89
2022/07/10 00:47:46;;;;;;;3.80;1.83;;;16.90;62.50;;;;;;5022014;28;20202;-88
2022/07/10 00:50:12;;;;;;;5.40;2.10;;;16.90;62.00;;;;;;5012077;28;20182;-88
2022/07/10 00:52:38;;;;;;;3.08;1.95;;;16.90;62.10;;;;;;5012042;28;20261;-88
2022/07/10 00:55:06;;;;;;;5.60;2.15;;;16.80;62.70;;;;;;5012293;28;20179;-89
2022/07/10 00:57:32;;;;;;;4.07;2.20;;;16.90;62.70;;;;;;5013061;28;20238;-88
2022/07/10 00:59:58;;;;;;;3.75;2.35;;;16.80;62.80;;;;;;4998595;28;20189;-88
2022/07/10 01:02:24;;;;;;;4.13;1.83;;;16.80;63.50;;;;;;5016276;28;20178;-89
2022/07/10 01:04:51;;;;;;;4.63;2.42;;;16.80;63.50;;;;;;5016273;28;20452;-90
2022/07/10 01:07:17;;;;;;;5.55;2.38;;;16.80;63.00;;;;;;5015986;28;20206;-89
2022/07/10 01:09:43;;;;;;;10.57;2.63;;;16.90;62.80;;;;;;5022521;28;20541;-89
2022/07/10 01:12:11;;;;;;;7.18;2.83;;;16.80;63.20;;;;;;5018070;28;20174;-88
2022/07/10 01:14:39;;;;;;;3.80;1.83;;;16.80;64.00;;;;;;5016385;28;20190;-89
2022/07/10 01:17:07;;;;;;;3.92;1.83;;;16.70;64.20;;;;;;5006937;28;20198;-89
2022/07/10 01:19:33;;;;;;;6.07;2.60;;;16.70;64.40;;;;;;4997825;28;20175;-88
2022/07/10 01:21:58;;;;;;;6.57;1.90;;;16.70;64.50;;;;;;4996902;28;20175;-89
2022/07/10 01:24:24;;;;;;;5.83;2.27;;;16.70;64.50;;;;;;4997206;28;20690;-89
2022/07/10 01:26:50;;;;;;;3.93;2.87;;;16.70;64.50;;;;;;4996668;28;20191;-89
2022/07/10 01:29:15;;;;;;;2.60;1.83;;;16.70;64.60;;;;;;4998111;28;20272;-88
2022/07/10 01:31:41;;;;;;;4.53;2.43;;;16.70;64.50;;;;;;4996584;28;20418;-88
2022/07/10 01:34:10;;;;;;;4.50;2.10;;;16.70;64.80;;;;;;4996777;28;20606;-90
2022/07/10 01:36:37;;;;;;;5.45;2.10;;;16.70;64.90;;;;;;4998314;28;20210;-89
2022/07/10 01:39:03;;;;;;;5.25;2.60;;;16.70;64.70;;;;;;4980789;28;20237;-88
2022/07/10 01:41:29;;;;;;;3.65;1.75;;;16.70;64.50;;;;;;4998046;28;20180;-90
2022/07/10 01:43:55;;;;;;;4.93;2.73;;;16.70;64.20;;;;;;4996551;28;20229;-89
2022/07/10 01:46:21;;;;;;;3.83;2.23;;;16.70;64.50;;;;;;4997085;28;20266;-89
2022/07/10 01:48:47;;;;;;;5.57;2.50;;;16.70;64.60;;;;;;4995995;28;20187;-89
2022/07/10 01:51:13;;;;;;;2.70;2.30;;;16.60;64.60;;;;;;4998431;28;20291;-89
2022/07/10 01:53:39;;;;;;;5.55;2.53;;;16.70;64.30;;;;;;4996131;28;20418;-89
2022/07/10 01:56:07;;;;;;;4.13;2.15;;;16.70;64.20;;;;;;4996669;28;20273;-89
2022/07/10 01:58:34;;;;;;;4.47;2.08;;;16.70;64.40;;;;;;4996049;28;20233;-89
2022/07/10 02:01:00;;;;;;;4.50;2.28;;;16.70;63.90;;;;;;4997354;28;20635;-89
2022/07/10 02:06:10;;;;;;;5.22;2.17;;;16.60;63.70;;;;;;5017420;28;20249;-89
2022/07/10 02:08:35;;;;;;;4.03;1.80;;;16.60;64.10;;;;;;5015938;28;20179;-89
2022/07/10 02:11:01;;;;;;;4.00;2.30;;;16.50;64.40;;;;;;5016202;28;20218;-88
2022/07/10 02:13:27;;;;;;;5.63;2.17;;;16.50;65.10;;;;;;5018734;28;20269;-89
2022/07/10 02:15:56;;;;;;;5.57;2.40;;;16.50;65.00;;;;;;5016738;28;20182;-89
2022/07/10 02:18:22;;;;;;;7.70;2.38;;;16.50;65.00;;;;;;5016525;28;20480;-89
2022/07/10 02:20:48;;;;;;;6.87;2.40;;;16.50;65.10;;;;;;5016273;28;20650;-89
2022/07/10 02:23:13;;;;;;;4.15;1.90;;;16.50;65.10;;;;;;5016689;28;20414;-89
2022/07/10 02:25:40;;;;;;;3.77;2.50;;;16.50;65.10;;;;;;5016839;28;20183;-89
2022/07/10 02:28:08;;;;;;;7.43;2.75;;;16.50;65.00;;;;;;5015961;28;20174;-88
2022/07/10 02:30:34;;;;;;;5.63;2.30;;;16.50;64.90;;;;;;5016721;28;20273;-88
2022/07/10 02:32:59;;;;;;;3.07;2.07;;;16.50;64.80;;;;;;5016813;28;20221;-88
2022/07/10 02:35:25;;;;;;;7.33;2.33;;;16.50;65.00;;;;;;5018150;28;20917;-89
2022/07/10 02:37:51;;;;;;;8.43;2.33;;;16.50;65.10;;;;;;5026453;28;20215;-89
2022/07/10 02:40:17;;;;;;;4.83;2.27;;;16.50;65.10;;;;;;5009812;28;20577;-88
2022/07/10 02:42:42;;;;;;;6.10;2.17;;;16.50;65.20;;;;;;4998977;28;20175;-88
2022/07/10 02:45:08;;;;;;;5.03;2.03;;;16.40;65.20;;;;;;4995531;28;20415;-88
2022/07/10 02:47:34;;;;;;;4.93;2.17;;;16.40;65.10;;;;;;4995232;28;20209;-88
2022/07/10 02:50:00;;;;;;;3.47;2.20;;;16.40;65.00;;;;;;4997066;28;20477;-89
2022/07/10 02:52:25;;;;;;;3.40;1.83;;;16.40;65.20;;;;;;4995059;28;20179;-89
2022/07/10 02:54:52;;;;;;;6.33;2.50;;;16.50;65.30;;;;;;4995448;28;20183;-88
2022/07/10 02:57:17;;;;;;;4.88;1.80;;;16.50;65.40;;;;;;4995028;28;20603;-88
2022/07/10 02:59:43;;;;;;;2.00;1.80;;;16.50;65.40;;;;;;4995423;28;20179;-88
2022/07/10 03:02:09;;;;;;;6.17;1.90;;;16.50;65.20;;;;;;4995366;28;20426;-88
2022/07/10 03:04:35;;;;;;;4.13;2.30;;;16.60;65.00;;;;;;4995366;28;20175;-89
2022/07/10 03:07:01;;;;;;;3.47;1.97;;;16.50;65.10;;;;;;4995339;28;20442;-89
2022/07/10 03:09:27;;;;;;;3.70;2.20;;;16.50;65.40;;;;;;4996454;28;20651;-88
2022/07/10 03:11:53;;;;;;;3.45;2.13;;;16.60;64.80;;;;;;4994978;28;20187;-89
2022/07/10 03:14:19;;;;;;;5.20;2.67;;;16.60;64.70;;;;;;4995576;28;20266;-89
2022/07/10 03:16:44;;;;;;;7.80;2.60;;;16.60;64.20;;;;;;4995781;28;20253;-89
2022/07/10 03:19:10;;;;;;;6.03;2.33;;;16.60;64.30;;;;;;4995701;28;20658;-89
2022/07/10 03:21:36;;;;;;;6.63;2.17;;;16.50;65.00;;;;;;4997008;28;20181;-88
2022/07/10 03:24:02;;;;;;;5.53;2.53;;;16.50;65.30;;;;;;4995846;28;20265;-88
2022/07/10 03:26:29;;;;;;;4.40;2.20;;;16.50;65.70;;;;;;4995905;28;20231;-89
2022/07/10 03:28:55;;;;;;;3.90;1.90;;;16.40;66.00;;;;;;4995441;28;20195;-89
2022/07/10 03:31:21;;;;;;;6.47;2.30;;;16.40;66.20;;;;;;4996136;28;20187;-89
2022/07/10 03:33:46;;;;;;;6.73;2.07;;;16.40;66.30;;;;;;4995720;28;20659;-88
2022/07/10 03:36:13;;;;;;;5.50;1.80;;;16.40;66.30;;;;;;5001726;28;20764;-88
2022/07/10 03:38:39;;;;;;;3.83;2.05;;;16.50;66.00;;;;;;5014761;28;20641;-88
2022/07/10 03:41:06;;;;;;;3.50;2.20;;;16.50;65.80;;;;;;5014693;28;20294;-88
2022/07/10 03:43:31;;;;;;;4.20;2.42;;;16.50;66.00;;;;;;5014993;28;20410;-87
2022/07/10 03:45:58;;;;;;;8.43;2.47;;;16.50;66.30;;;;;;5015798;28;20230;-89
2022/07/10 03:48:24;;;;;;;4.20;2.50;;;16.50;67.00;;;;;;5014260;28;20228;-88
2022/07/10 03:50:51;;;;;;;5.28;2.55;;;16.40;66.60;;;;;;5015796;28;20228;-88
2022/07/10 03:53:17;;;;;;;3.17;1.98;;;16.40;66.80;;;;;;5004643;28;20179;-88
2022/07/10 03:55:43;;;;;;;7.50;2.80;;;16.50;66.50;;;;;;4995834;28;20225;-89
2022/07/10 03:58:08;;;;;;;4.20;2.67;;;16.50;66.70;;;;;;5007460;28;20190;-88
2022/07/10 04:00:37;;;;;;;4.87;2.17;;;16.50;67.10;;;;;;5015800;28;20648;-88
2022/07/10 04:03:05;;;;;;;6.82;2.38;;;16.50;67.10;;;;;;5015436;28;20174;-88
2022/07/10 04:05:32;;;;;;;4.10;2.00;;;16.50;66.90;;;;;;5016455;28;20225;-89
2022/07/10 04:07:59;;;;;;;5.60;2.15;;;16.50;67.20;;;;;;5014582;28;20264;-89
2022/07/10 04:10:29;;;;;;;4.30;2.25;;;16.50;67.50;;;;;;5014655;28;20193;-89
2022/07/10 04:12:55;;;;;;;5.25;2.92;;;16.50;67.60;;;;;;5016820;28;20759;-89
2022/07/10 04:15:21;;;;;;;4.78;2.63;;;16.40;67.70;;;;;;5015235;28;20311;-89
2022/07/10 04:17:48;;;;;;;7.10;2.50;;;16.40;68.00;;;;;;5014539;28;20210;-88
2022/07/10 04:20:15;;;;;;;5.57;1.92;;;16.40;68.30;;;;;;5014057;28;20181;-87
2022/07/10 04:22:41;;;;;;;3.55;2.33;;;16.50;68.40;;;;;;5014215;28;20171;-87
2022/07/10 04:25:08;;;;;;;5.57;2.33;;;16.50;68.50;;;;;;5014639;28;20185;-87
2022/07/10 04:27:34;;;;;;;8.55;2.60;;;16.60;68.90;;;;;;5018183;28;20453;-88
2022/07/10 04:29:59;;;;;;;9.35;2.50;;;16.60;68.30;;;;;;5025884;28;20181;-89
2022/07/10 04:32:25;;;;;;;5.50;2.40;;;16.60;67.90;;;;;;5032819;28;20182;-88
2022/07/10 04:34:51;;;;;;;4.10;2.10;;;16.70;68.00;;;;;;5025571;28;20181;-87
2022/07/10 04:37:17;;;;;;;4.80;2.65;;;16.60;67.90;;;;;;5024894;28;20444;-88
2022/07/10 04:39:43;;;;;;;3.23;2.70;;;16.70;67.90;;;;;;5024091;28;20175;-88
2022/07/10 04:42:09;;;;;;;5.60;2.03;;;16.60;68.40;;;;;;5021014;28;20429;-88
2022/07/10 04:44:38;;;;;;;5.43;2.35;;;16.60;68.50;;;;;;5021608;28;20417;-89
2022/07/10 04:47:05;;;;;;;4.45;2.30;;;16.70;69.50;;;;;;5019490;28;20194;-88
2022/07/10 04:49:32;;;;;;;3.70;2.42;;;16.70;68.90;;;;;;5022057;28;20171;-88
2022/07/10 04:51:57;;;;;;;9.85;2.88;;;16.70;69.10;;;;;;5021688;28;20676;-88
2022/07/10 04:54:23;;;;;;;5.23;1.97;;;16.70;69.30;;;;;;5021989;28;20250;-88
2022/07/10 04:56:49;;;;;;;5.27;2.10;;;16.70;69.40;;;;;;5023285;28;20674;-89
2022/07/10 04:59:15;;;;;;;3.93;2.00;;;16.70;69.90;;;;;;5024662;28;20202;-88
2022/07/10 05:01:41;;;;;;;4.20;2.47;;;16.70;70.00;;;;;;5024182;28;20186;-89
2022/07/10 05:04:06;;;;;;;5.45;2.28;;;16.90;69.00;;;;;;5024840;28;20593;-88
2022/07/10 05:06:32;;;;;;;3.20;1.67;;;17.00;68.70;;;;;;5019862;28;20689;-88
2022/07/10 05:08:59;;;;;;;4.43;2.07;;;16.90;68.70;;;;;;5019672;28;20202;-87
2022/07/10 05:11:25;;;;;;;3.60;2.30;;;16.90;69.30;;;;;;5019705;28;20429;-88
2022/07/10 05:13:51;;;;;;;3.88;2.10;;;16.90;69.40;;;;;;5020502;28;20289;-88
2022/07/10 05:16:17;;;;;;;5.30;2.10;;;16.90;69.30;;;;;;5019924;28;20846;-89
2022/07/10 05:18:44;;;;;;;4.40;2.10;;;17.10;68.80;;;;;;5019731;28;20548;-89
2022/07/10 05:21:10;;;;;;;5.60;2.42;;;17.10;68.60;;;;;;5026073;28;20182;-89
2022/07/10 05:23:38;;;;;;;4.13;1.75;;;17.30;68.50;;;;;;5029870;28;20261;-87
2022/07/10 05:26:04;;;;;;;3.85;2.10;;;17.60;66.50;;;;;;5029787;28;20198;-87
2022/07/10 05:28:30;;;;;;;5.57;2.27;;;17.60;66.60;;;;;;5005268;28;20597;-88
2022/07/10 05:30:55;;;;;;;4.83;1.90;;;17.60;66.50;;;;;;5020032;28;20821;-88
2022/07/10 05:33:21;;;;;;;4.87;2.27;;;17.60;66.70;;;;;;5017660;28;20443;-88
2022/07/10 05:35:47;;;;;;;4.40;1.65;;;17.70;65.40;;;;;;5014128;28;20493;-89
2022/07/10 05:38:13;;;;;;;6.73;2.40;;;17.70;66.10;;;;;;4997728;28;20215;-89
2022/07/10 05:40:39;;;;;;;3.60;2.05;;;17.50;66.00;;;;;;4999212;28;20421;-88
2022/07/10 05:43:05;;;;;;;5.68;2.08;;;17.50;66.20;;;;;;5006778;28;20262;-88
2022/07/10 05:45:31;;;;;;;3.17;2.10;;;17.50;66.10;;;;;;5016883;28;20210;-91
2022/07/10 05:47:57;;;;;;;6.47;2.57;;;17.50;65.80;;;;;;5017137;28;20202;-88
2022/07/10 05:50:22;;;;;;;5.30;2.43;;;17.80;64.80;;;;;;5018278;28;20175;-88
2022/07/10 05:52:48;;;;;;;7.87;2.50;;;17.60;64.80;;;;;;5017566;28;20179;-89
2022/07/10 05:55:14;;;;;;;2.87;1.90;;;17.60;65.00;;;;;;5017679;28;20553;-89
2022/07/10 05:57:40;;;;;;;4.15;1.98;;;17.70;65.00;;;;;;5011946;28;20331;-87
2022/07/10 06:00:07;;;;;;;2.47;1.50;;;17.70;64.70;;;;;;4999843;28;20179;-89
2022/07/10 06:02:32;;;;;;;5.82;1.80;;;17.80;64.60;;;;;;4997914;28;20230;-89
2022/07/10 06:04:59;;;;;;;4.40;2.20;;;17.90;64.80;;;;;;4997640;28;20183;-88
2022/07/10 06:07:26;;;;;;;2.67;1.65;;;17.90;64.70;;;;;;4998178;28;20962;-89
2022/07/10 06:09:52;;;;;;;5.00;2.10;;;17.90;64.60;;;;;;4998661;28;20233;-88
2022/07/10 06:12:18;;;;;;;4.43;2.10;;;18.20;62.70;;;;;;4998765;28;20179;-89
2022/07/10 06:14:43;;;;;;;3.70;1.80;;;18.30;61.90;;;;;;4998933;28;20468;-89
2022/07/10 06:17:09;;;;;;;2.50;1.80;;;18.40;61.70;;;;;;4998392;28;20297;-89
2022/07/10 06:19:35;;;;;;;9.37;2.17;;;18.40;62.00;;;;;;4999211;28;20234;-89
2022/07/10 06:24:45;;;;;;;3.05;1.65;;;18.50;60.50;;;;;;5018680;28;20159;-89
2022/07/10 06:27:11;;;;;;;3.53;1.70;;;18.40;60.90;;;;;;5003647;28;20203;-89
2022/07/10 06:29:37;;;;;;;3.27;1.80;;;18.30;61.60;;;;;;4999582;28;20554;-90
2022/07/10 06:32:03;;;;;;;4.35;1.42;;;18.10;62.10;;;;;;5002231;28;20453;-90
2022/07/10 06:34:29;;;;;;;4.22;1.80;;;18.30;62.30;;;;;;5007373;28;20187;-90
2022/07/10 06:36:55;;;;;;;5.77;2.10;;;18.40;62.50;;;;;;5010468;28;20225;-89
2022/07/10 06:39:20;;;;;;;2.57;1.80;;;18.60;61.40;;;;;;5017617;28;20222;-89
2022/07/10 06:41:46;;;;;;;4.43;2.07;;;18.80;60.70;;;;;;5018257;28;20186;-90
2022/07/10 06:44:12;;;;;;;5.80;2.03;;;18.70;61.10;;;;;;4999538;28;20179;-89
2022/07/10 06:46:37;;;;;;;2.27;1.60;;;18.80;60.60;;;;;;4997821;28;20238;-89
2022/07/10 06:49:03;;;;;;;5.13;1.90;;;18.90;60.60;;;;;;4997837;28;20612;-89
2022/07/10 06:51:29;;;;;;;3.60;1.80;;;18.80;60.80;;;;;;4997120;28;20187;-88
2022/07/10 06:53:56;;;;;;;2.67;1.83;;;19.00;60.60;;;;;;5012660;28;20429;-89
2022/07/10 06:56:21;;;;;;;4.72;2.08;;;18.90;60.80;;;;;;5016080;28;20218;-89
2022/07/10 06:58:47;;;;;;;4.23;2.20;;;18.90;61.10;;;;;;5016909;28;20763;-88
2022/07/10 07:01:13;;;;;;;4.53;1.90;;;18.80;61.10;;;;;;4999515;28;20186;-88
2022/07/10 07:03:38;;;;;;;4.77;2.33;;;19.20;60.40;;;;;;5018532;28;20558;-87
2022/07/10 07:06:04;;;;;;;5.80;2.00;;;19.30;60.40;;;;;;5015999;28;20674;-88
2022/07/10 07:08:30;;;;;;;4.50;1.90;;;19.50;60.10;;;;;;5016297;28;20221;-87
2022/07/10 07:10:56;;;;;;;5.13;1.90;;;19.40;60.70;;;;;;5018070;28;20409;-87
2022/07/10 07:13:21;;;;;;;3.50;1.90;;;19.30;60.80;;;;;;5017181;28;20170;-88
2022/07/10 07:15:58;;;;;;;7.03;2.30;;;19.60;60.70;;;;;;5015665;28;20192;-86
2022/07/10 07:18:31;;;;;;;3.73;2.00;;;19.60;60.20;;;;;;5015203;28;20310;-87
2022/07/10 07:23:44;;;;;;;2.30;2.10;;;19.40;59.40;;;;;;5016312;28;20472;-89
2022/07/10 07:26:10;;;;;;;3.50;2.07;;;19.60;58.90;;;;;;5015683;28;20503;-89
2022/07/10 07:28:35;;;;;;;3.90;2.10;;;19.30;58.60;;;;;;5012792;28;20185;-88
2022/07/10 07:31:01;;;;;;;4.10;2.17;;;19.10;59.90;;;;;;5013962;28;20178;-89
2022/07/10 07:33:27;;;;;;;2.70;2.00;;;19.00;60.60;;;;;;5013044;28;20297;-88
2022/07/10 07:35:59;;;;;;;3.97;2.03;;;19.20;61.30;;;;;;5015833;28;20220;-89
2022/07/10 07:38:24;;;;;;;7.43;2.67;;;19.50;60.60;;;;;;5014478;28;20197;-89
2022/07/10 07:40:50;;;;;;;2.33;1.90;;;19.80;58.90;;;;;;4999402;28;20429;-88
2022/07/10 07:43:16;;;;;;;2.57;1.80;;;20.10;57.50;;;;;;5017634;28;20178;-89
2022/07/10 07:45:41;;;;;;;6.23;2.07;;;20.10;56.90;;;;;;5013378;28;20237;-89
2022/07/10 07:48:07;;;;;;;3.70;2.10;;;19.90;57.20;;;;;;5014587;28;20182;-89
2022/07/10 07:50:34;;;;;;;6.43;2.63;;;20.10;57.00;;;;;;5019118;28;20186;-88
2022/07/10 07:53:01;;;;;;;3.30;1.97;;;20.20;57.80;;;;;;5015179;28;20430;-88
2022/07/10 07:55:28;;;;;;;7.20;1.93;;;20.30;57.10;;;;;;5014660;28;20484;-88
2022/07/10 07:57:55;;;;;;;3.93;1.60;;;20.80;55.30;;;;;;5004793;28;20516;-87
2022/07/10 08:00:26;;;;;;;5.20;2.90;;;21.00;54.20;;;;;;4996487;28;20897;-87
2022/07/10 08:02:53;;;;;;;3.83;2.00;;;21.00;55.50;;;;;;4996446;28;20426;-88
2022/07/10 08:05:20;;;;;;;4.77;2.47;;;21.20;54.10;;;;;;4995202;28;20422;-88
2022/07/10 08:07:49;;;;;;;3.60;1.70;;;21.10;55.30;;;;;;4993825;28;20497;-88
2022/07/10 08:10:16;;;;;;;3.63;1.63;;;21.30;52.90;;;;;;4998609;28;20930;-88
2022/07/10 08:12:45;;;;;;;5.77;2.60;;;21.40;51.70;;;;;;4982446;28;20434;-88
2022/07/10 08:15:12;;;;;;;10.03;2.47;;;21.60;51.40;;;;;;4999340;28;20421;-89
2022/07/10 08:17:38;;;;;;;4.90;2.20;;;21.60;51.40;;;;;;5034054;28;20552;-88
2022/07/10 08:20:05;;;;;;;4.60;2.17;;;21.70;50.90;;;;;;5024284;28;20425;-89
2022/07/10 08:22:31;;;;;;;8.60;2.57;;;21.70;51.00;;;;;;5018667;28;20434;-87
2022/07/10 08:24:57;;;;;;;2.93;1.73;;;21.70;50.60;;;;;;5020321;28;20680;-88
2022/07/10 08:27:23;;;;;;;3.67;1.77;;;21.70;50.50;;;;;;5019861;28;21172;-87
2022/07/10 08:29:49;;;;;;;5.50;1.90;;;21.70;50.50;;;;;;5019655;28;20558;-87
2022/07/10 08:32:14;;;;;;;2.97;2.27;;;21.70;51.30;;;;;;5026297;28;20450;-88
2022/07/10 08:34:40;;;;;;;8.03;2.17;;;21.10;52.20;;;;;;5025954;28;20657;-88
2022/07/10 08:37:06;;;;;;;7.33;2.50;;;21.00;53.50;;;;;;5025540;28;20198;-88
2022/07/10 08:39:33;;;;;;;3.93;2.03;;;21.50;52.20;;;;;;5018159;28;20210;-88
2022/07/10 08:41:59;;;;;;;4.60;2.50;;;21.70;51.70;;;;;;5018095;28;20760;-88
2022/07/10 08:44:25;;;;;;;5.53;2.10;;;21.30;52.10;;;;;;5019789;28;20437;-89
2022/07/10 08:46:57;;;;;;;4.70;2.23;;;21.80;51.10;;;;;;5018781;28;20878;-88
2022/07/10 08:49:28;;;;;;;4.67;2.03;;;21.90;50.40;;;;;;5017295;28;20449;-88
2022/07/10 08:52:03;;;;;;;3.53;2.23;;;22.10;50.30;;;;;;5017649;28;20492;-88
2022/07/10 08:54:29;;;;;;;2.63;1.77;;;21.40;52.10;;;;;;5017882;28;20409;-88
2022/07/10 08:57:00;;;;;;;4.20;2.33;;;21.40;52.70;;;;;;5015732;28;20864;-88
2022/07/10 08:59:26;;;;;;;3.20;2.00;;;21.20;53.60;;;;;;4997892;28;20995;-89
2022/07/10 09:01:53;;;;;;;5.00;1.83;;;21.40;53.70;;;;;;4998453;28;20410;-89
2022/07/10 09:04:23;;;;;;;3.63;1.93;;;22.00;50.60;;;;;;4998043;28;20432;-89
2022/07/10 09:06:51;;;;;;;3.60;2.10;;;22.20;50.50;;;;;;4997113;28;20453;-88
2022/07/10 09:09:17;;;;;;;8.00;2.40;;;22.10;51.90;;;;;;4997592;28;20430;-89
2022/07/10 09:11:44;;;;;;;4.20;1.97;;;22.20;51.20;;;;;;4998769;28;20923;-88
2022/07/10 09:14:11;;;;;;;3.17;2.77;;;22.30;50.10;;;;;;4999043;28;20414;-89
2022/07/10 09:16:43;;;;;;;3.87;2.90;;;21.90;51.20;;;;;;5003152;28;20441;-89
2022/07/10 09:19:26;;;;;;;5.53;2.60;;;21.40;51.40;;;;;;5024951;28;20457;-88
2022/07/10 09:22:01;;;;;;;5.43;3.10;;;21.70;51.30;;;;;;5023480;28;20416;-88
2022/07/10 09:24:40;;;;;;;2.90;2.40;;;21.80;50.80;;;;;;5018469;28;20402;-89
2022/07/10 09:27:06;;;;;;;4.60;2.03;;;21.80;50.80;;;;;;5018095;28;20457;-88
2022/07/10 09:29:45;;;;;;;3.93;2.33;;;21.70;51.50;;;;;;5017912;28;20417;-89
2022/07/10 09:32:12;;;;;;;3.20;2.50;;;21.50;53.20;;;;;;5017928;28;20419;-89
2022/07/10 09:34:42;;;;;;;8.40;3.47;;;21.60;53.70;;;;;;5019809;28;20446;-89
2022/07/10 09:37:18;;;;;;;4.97;2.40;;;22.00;53.50;;;;;;5017284;28;20441;-89
2022/07/10 09:39:56;;;;;;;2.97;2.30;;;21.80;52.80;;;;;;5021083;28;20504;-89
2022/07/10 09:42:30;;;;;;;4.43;2.50;;;21.50;53.70;;;;;;5022082;28;20413;-89
2022/07/10 09:45:15;;;;;;;4.20;2.77;;;21.70;54.10;;;;;;5019986;28;20413;-89
2022/07/10 09:47:58;;;;;;;4.93;3.00;;;22.10;53.40;;;;;;5024462;28;20464;-88
2022/07/10 09:50:24;;;;;;;4.80;2.83;;;22.00;53.20;;;;;;5031936;28;20412;-88
2022/07/10 09:52:56;;;;;;;3.87;2.40;;;22.30;52.80;;;;;;5033405;28;20425;-87
2022/07/10 09:55:26;;;;;;;5.40;3.13;;;22.50;52.40;;;;;;5026359;28;20425;-89
2022/07/10 09:57:57;;;;;;;3.03;2.00;;;22.70;51.10;;;;;;5010472;28;21088;-89
2022/07/10 10:00:47;;;;;;;4.30;2.30;;;22.90;50.20;;;;;;4999101;28;20414;-88
2022/07/10 10:03:14;;;;;;;5.43;1.93;;;23.10;50.40;;;;;;5003197;28;20839;-89
2022/07/10 10:05:45;;;;;;;8.33;3.00;;;22.90;50.20;;;;;;4996335;28;20445;-89
2022/07/10 10:08:18;;;;;;;5.87;2.33;;;22.30;51.40;;;;;;5002095;28;20422;-88
2022/07/10 10:10:49;;;;;;;3.10;2.07;;;22.30;52.30;;;;;;5018169;28;20433;-89
2022/07/10 10:13:22;;;;;;;5.23;2.20;;;22.40;52.50;;;;;;4999276;28;20871;-88
2022/07/10 10:15:49;;;;;;;6.17;2.33;;;22.10;52.90;;;;;;4999011;28;20860;-89
2022/07/10 10:18:20;;;;;;;4.43;2.20;;;22.20;52.60;;;;;;4997298;28;20470;-88
2022/07/10 10:20:47;;;;;;;5.57;2.87;;;22.40;52.50;;;;;;4997200;28;21119;-89
2022/07/10 10:23:17;;;;;;;4.13;2.30;;;22.60;51.50;;;;;;4997124;28;20437;-88
2022/07/10 10:25:43;;;;;;;2.93;2.00;;;22.80;51.90;;;;;;4998100;28;20418;-88
2022/07/10 10:28:11;;;;;;;5.73;2.97;;;22.70;51.50;;;;;;4996919;28;20422;-88
2022/07/10 10:30:39;;;;;;;2.30;2.10;;;22.80;51.10;;;;;;4996358;28;20450;-88
2022/07/10 10:33:44;;;;;;;3.67;2.00;;;22.60;52.20;;;;;;4996602;28;20441;-88
2022/07/10 10:36:13;;;;;;;3.83;2.13;;;23.00;50.80;;;;;;5003722;28;20471;-90
2022/07/10 10:38:48;;;;;;;2.70;2.33;;;23.10;50.90;;;;;;5017265;28;20461;-87
2022/07/10 10:41:46;;;;;;;4.03;2.80;;;23.10;50.80;;;;;;5017440;28;20433;-89
2022/07/10 10:44:17;;;;;;;3.70;2.33;;;23.00;50.70;;;;;;4997639;28;20419;-89
2022/07/10 10:47:07;;;;;;;3.87;2.53;;;22.60;51.10;;;;;;4998394;28;20436;-88
2022/07/10 10:49:50;;;;;;;2.77;2.43;;;22.40;51.50;;;;;;4997592;28;20840;-88
2022/07/10 10:52:17;;;;;;;2.87;1.97;;;22.50;52.00;;;;;;4998974;28;20430;-87
2022/07/10 10:55:03;;;;;;;2.10;1.60;;;22.50;52.30;;;;;;4998963;28;20589;-89
2022/07/10 10:57:32;;;;;;;4.43;2.33;;;22.90;51.60;;;;;;5007022;28;20461;-90
2022/07/10 10:59:59;;;;;;;3.80;1.90;;;22.70;51.40;;;;;;5018173;28;20472;-89
2022/07/10 11:02:42;;;;;;;3.33;2.03;;;22.90;51.40;;;;;;5017509;28;20425;-89
2022/07/10 11:05:14;;;;;;;5.13;1.70;;;23.00;51.30;;;;;;5018464;28;20417;-90
2022/07/10 11:08:01;;;;;;;2.53;2.03;;;23.10;50.20;;;;;;5017232;28;20540;-90
2022/07/10 11:10:45;;;;;;;3.90;1.83;;;23.20;50.50;;;;;;5017324;28;20442;-90
2022/07/10 11:13:18;;;;;;;3.53;2.70;;;23.60;49.90;;;;;;5019368;28;20412;-89
2022/07/10 11:15:46;;;;;;;2.37;2.10;;;23.60;48.40;;;;;;5018394;28;20441;-89
2022/07/10 11:18:19;;;;;;;4.07;2.30;;;23.20;49.00;;;;;;4999100;28;20977;-89
2022/07/10 11:20:50;;;;;;;5.43;2.20;;;23.10;49.50;;;;;;4997490;28;20425;-89
2022/07/10 11:23:43;;;;;;;4.27;1.70;;;22.90;51.40;;;;;;4998360;28;20434;-89
2022/07/10 11:26:16;;;;;;;2.53;1.60;;;23.10;50.90;;;;;;4998169;28;20435;-89
2022/07/10 11:28:52;;;;;;;4.00;2.10;;;23.30;50.30;;;;;;4997099;28;20430;-87
2022/07/10 11:31:19;;;;;;;4.70;2.73;;;23.70;50.10;;;;;;4998883;28;20409;-89
2022/07/10 11:33:48;;;;;;;4.20;2.00;;;23.50;49.70;;;;;;4998820;28;20430;-88
2022/07/10 11:36:34;;;;;;;4.83;2.53;;;23.80;49.50;;;;;;5005359;28;20487;-88
2022/07/10 11:39:05;;;;;;;3.83;2.10;;;24.20;47.70;;;;;;5016657;28;20992;-89
2022/07/10 11:41:32;;;;;;;3.43;2.10;;;23.80;47.70;;;;;;5018514;28;20417;-88
2022/07/10 11:44:00;;;;;;;4.97;2.63;;;23.30;49.50;;;;;;5019113;28;20528;-88
2022/07/10 11:46:29;;;;;;;3.50;2.07;;;23.30;49.60;;;;;;5017442;28;20441;-89
2022/07/10 11:48:56;;;;;;;4.27;1.93;;;23.20;49.80;;;;;;5017578;28;20422;-89
2022/07/10 11:51:29;;;;;;;4.33;2.07;;;23.50;49.50;;;;;;5017690;28;20426;-88
2022/07/10 11:54:06;;;;;;;2.80;2.13;;;23.30;49.80;;;;;;5018150;28;20425;-90
2022/07/10 11:56:38;;;;;;;5.50;2.13;;;23.20;50.00;;;;;;5016281;28;20547;-88
2022/07/10 11:59:09;;;;;;;5.50;2.17;;;23.10;50.70;;;;;;5016069;28;20458;-89
2022/07/10 12:01:41;;;;;;;4.50;2.30;;;23.40;50.90;;;;;;5023131;28;20468;-88
2022/07/10 12:04:08;;;;;;;3.70;2.30;;;23.30;49.80;;;;;;5034138;28;20413;-89
2022/07/10 12:06:37;;;;;;;3.40;1.80;;;23.20;49.30;;;;;;5017735;28;20437;-88
2022/07/10 12:09:12;;;;;;;3.23;2.10;;;23.40;49.80;;;;;;5018075;28;20421;-88
2022/07/10 12:11:39;;;;;;;2.57;1.60;;;23.20;50.00;;;;;;5018719;28;20480;-89
2022/07/10 12:14:32;;;;;;;6.10;3.00;;;23.50;50.10;;;;;;5018395;28;20793;-87
2022/07/10 12:16:58;;;;;;;3.30;2.03;;;23.30;49.40;;;;;;5020162;28;20453;-89
2022/07/10 12:19:32;;;;;;;2.97;1.90;;;23.20;49.60;;;;;;5021633;28;20457;-90
2022/07/10 12:22:00;;;;;;;2.27;1.87;;;23.40;49.00;;;;;;5002762;28;20460;-89
2022/07/10 12:24:26;;;;;;;4.20;1.90;;;23.50;49.90;;;;;;5018071;28;20421;-88
2022/07/10 12:26:55;;;;;;;6.00;2.80;;;23.60;49.50;;;;;;5018284;28;20437;-88
2022/07/10 12:29:26;;;;;;;5.00;2.17;;;23.70;49.10;;;;;;5019728;28;20418;-90
2022/07/10 12:31:56;;;;;;;4.10;2.20;;;24.00;48.30;;;;;;5020559;28;20429;-89
2022/07/10 12:34:36;;;;;;;3.03;2.00;;;23.80;47.90;;;;;;5014992;28;20422;-88
2022/07/10 12:37:09;;;;;;;4.87;1.80;;;23.60;48.40;;;;;;5004331;28;20434;-90
2022/07/10 12:39:45;;;;;;;3.10;1.70;;;23.40;49.10;;;;;;4980027;28;20499;-90
2022/07/10 12:42:10;;;;;;;4.40;2.17;;;23.20;49.40;;;;;;4979331;28;20429;-90
2022/07/10 12:44:41;;;;;;;4.13;1.97;;;23.30;49.20;;;;;;4996790;28;20778;-90
2022/07/10 12:47:09;;;;;;;5.93;2.43;;;23.60;48.60;;;;;;4996384;28;20199;-89
2022/07/10 12:49:49;;;;;;;4.07;2.30;;;23.60;48.40;;;;;;4996009;28;20424;-88
2022/07/10 12:52:27;;;;;;;3.13;1.93;;;23.50;48.40;;;;;;4996845;28;20764;-88
2022/07/10 12:55:10;;;;;;;2.30;1.90;;;23.50;48.50;;;;;;4997782;28;20429;-89
2022/07/10 12:57:56;;;;;;;3.13;1.87;;;23.80;48.10;;;;;;4998506;28;20532;-89
2022/07/10 13:00:32;;;;;;;2.57;2.07;;;24.00;47.90;;;;;;4998771;28;20418;-87
2022/07/10 13:03:06;;;;;;;2.17;1.70;;;24.10;48.00;;;;;;4999394;28;20422;-88